createdAt,value
2022-11-21T00:02:02.823Z,1002.55
2022-11-21T00:17:04.124Z,1002.35
2022-11-21T00:32:05.695Z,1002.12
2022-11-21T00:47:05.846Z,1002.03
2022-11-21T01:02:07.722Z,1001.85
2022-11-21T01:17:07.910Z,1001.79
2022-11-21T01:32:09.799Z,1001.52
2022-11-21T01:47:11.645Z,1001.56
2022-11-21T02:02:13.006Z,1001.60
2022-11-21T02:17:13.610Z,1001.54
2022-11-21T02:32:14.498Z,1001.32
2022-11-21T02:47:14.848Z,1001.26
2022-11-21T03:02:15.584Z,1001.23
2022-11-21T03:17:17.310Z,1001.17
2022-11-21T03:32:18.627Z,1001.15
2022-11-21T03:47:20.180Z,1001.19
2022-11-21T04:02:21.493Z,1001.22
2022-11-21T04:17:21.610Z,1001.32
2022-11-21T04:32:23.015Z,1001.39
2022-11-21T04:47:24.105Z,1001.35
2022-11-21T05:02:25.028Z,1001.31
2022-11-21T05:17:26.426Z,1001.43
2022-11-21T05:32:28.308Z,1001.53
2022-11-21T05:47:29.650Z,1001.51
2022-11-21T06:02:31.042Z,1001.38
2022-11-21T06:17:32.404Z,1001.48
2022-11-21T06:32:33.803Z,1001.53
2022-11-21T06:47:35.627Z,1001.62
2022-11-21T07:02:37.304Z,1001.75
2022-11-21T07:17:38.225Z,1001.94
2022-11-21T07:32:40.493Z,1002.10
2022-11-21T07:47:42.852Z,1002.21
2022-11-21T08:02:44.707Z,1002.36
2022-11-21T08:17:45.317Z,1002.32
2022-11-21T08:32:45.505Z,1002.35
2022-11-21T08:47:46.565Z,1002.62
2022-11-21T09:02:49.204Z,1002.55
2022-11-21T09:17:51.364Z,1002.56
2022-11-21T09:32:53.217Z,1002.52
2022-11-21T09:47:55.191Z,1002.70
2022-11-21T10:02:57.170Z,1002.73
2022-11-21T10:17:58.563Z,1003.00
2022-11-21T10:33:00.155Z,1002.87
2022-11-21T10:48:07.901Z,1002.99
2022-11-21T11:03:09.519Z,1003.05
2022-11-21T11:18:13.224Z,1003.11
2022-11-21T11:33:13.830Z,1003.12
2022-11-21T11:48:14.519Z,1003.12
2022-11-21T12:03:15.877Z,1003.16
2022-11-21T12:18:18.096Z,1003.09
2022-11-21T12:33:19.710Z,1002.93
2022-11-21T12:48:21.257Z,1002.83
2022-11-21T13:03:23.602Z,1002.78
2022-11-21T13:18:24.696Z,1002.76
2022-11-21T13:33:26.150Z,1002.72
2022-11-21T13:48:28.803Z,1002.51
2022-11-21T14:03:31.224Z,1002.50
2022-11-21T14:18:32.285Z,1002.42
2022-11-21T14:33:34.245Z,1002.41
2022-11-21T14:48:35.324Z,1002.20
2022-11-21T15:03:36.812Z,1002.42
2022-11-21T15:18:37.519Z,1002.40
2022-11-21T15:33:39.243Z,1002.33
2022-11-21T15:48:40.015Z,1002.33
2022-11-21T16:03:49.386Z,1002.31
2022-11-21T16:18:50.239Z,1002.29
2022-11-21T16:33:52.713Z,1002.08
2022-11-21T16:48:53.771Z,1002.06
2022-11-21T17:03:54.429Z,1002.12
2022-11-21T17:18:55.276Z,1002.09
2022-11-21T17:33:56.657Z,1001.90
2022-11-21T17:48:58.772Z,1001.79
2022-11-21T18:04:00.708Z,1001.60
2022-11-21T18:19:01.992Z,1001.56
2022-11-21T18:34:04.193Z,1001.68
2022-11-21T18:49:06.805Z,1001.40
2022-11-21T19:04:10.510Z,1001.13
2022-11-21T19:19:41.950Z,1001.21
2022-11-21T19:34:20.958Z,1000.99
2022-11-21T19:49:21.868Z,1000.61
2022-11-21T20:04:23.730Z,1000.27
2022-11-21T20:19:26.649Z,1000.23
2022-11-21T20:34:29.234Z,1000.39
2022-11-21T20:49:31.096Z,1000.36
2022-11-21T21:04:33.101Z,1000.25
2022-11-21T21:19:35.006Z,1000.51
2022-11-21T21:34:37.418Z,1000.82
2022-11-21T21:49:39.714Z,1001.01
2022-11-21T22:04:41.208Z,1000.85
2022-11-21T22:19:41.754Z,1000.72
2022-11-21T22:34:42.358Z,1000.32
2022-11-21T22:49:43.599Z,1000.29
2022-11-21T23:04:45.220Z,1000.20
2022-11-21T23:19:48.098Z,1000.16
2022-11-21T23:34:49.227Z,1000.13
2022-11-21T23:49:50.431Z,1000.02
